sensor_id;sensor_type;location;lat;lon;timestamp;P1;durP1;ratioP1;P2;durP2;ratioP2
2396;SDS011;1209;48.410;9.054;2023-04-25T00:02:03;2.30;;;2.20;;
2396;SDS011;1209;48.410;9.054;2023-04-25T00:04:30;3.90;;;2.57;;
2396;SDS011;1209;48.410;9.054;2023-04-25T00:06:58;2.50;;;2.30;;
2396;SDS011;1209;48.410;9.054;2023-04-25T00:09:26;3.87;;;2.37;;
2396;SDS011;1209;48.410;9.054;2023-04-25T00:11:52;2.20;;;2.10;;
2396;SDS011;1209;48.410;9.054;2023-04-25T00:14:17;2.30;;;2.20;;
2396;SDS011;1209;48.410;9.054;2023-04-25T00:16:42;2.70;;;2.20;;
2396;SDS011;1209;48.410;9.054;2023-04-25T00:19:09;2.13;;;1.97;;
2396;SDS011;1209;48.410;9.054;2023-04-25T00:21:34;4.50;;;2.40;;
2396;SDS011;1209;48.410;9.054;2023-04-25T00:24:00;10.60;;;2.17;;
2396;SDS011;1209;48.410;9.054;2023-04-25T00:26:26;1.93;;;1.80;;
2396;SDS011;1209;48.410;9.054;2023-04-25T00:28:52;5.23;;;1.83;;
2396;SDS011;1209;48.410;9.054;2023-04-25T00:31:17;2.07;;;1.87;;
2396;SDS011;1209;48.410;9.054;2023-04-25T00:33:42;2.27;;;2.07;;
2396;SDS011;1209;48.410;9.054;2023-04-25T00:36:08;2.60;;;2.40;;
2396;SDS011;1209;48.410;9.054;2023-04-25T00:38:34;2.53;;;1.90;;
2396;SDS011;1209;48.410;9.054;2023-04-25T00:40:59;2.20;;;2.07;;
2396;SDS011;1209;48.410;9.054;2023-04-25T00:43:25;1.93;;;1.83;;
2396;SDS011;1209;48.410;9.054;2023-04-25T00:45:51;2.37;;;2.17;;
2396;SDS011;1209;48.410;9.054;2023-04-25T00:48:17;2.47;;;2.30;;
2396;SDS011;1209;48.410;9.054;2023-04-25T00:50:43;2.37;;;2.20;;
2396;SDS011;1209;48.410;9.054;2023-04-25T00:53:16;2.10;;;2.00;;
2396;SDS011;1209;48.410;9.054;2023-04-25T00:55:41;2.17;;;2.03;;
2396;SDS011;1209;48.410;9.054;2023-04-25T00:58:07;2.33;;;2.13;;
2396;SDS011;1209;48.410;9.054;2023-04-25T01:00:32;2.47;;;2.27;;
2396;SDS011;1209;48.410;9.054;2023-04-25T01:02:58;3.20;;;2.27;;
2396;SDS011;1209;48.410;9.054;2023-04-25T01:05:23;6.53;;;2.23;;
2396;SDS011;1209;48.410;9.054;2023-04-25T01:07:48;3.10;;;2.10;;
2396;SDS011;1209;48.410;9.054;2023-04-25T01:10:14;3.13;;;2.30;;
2396;SDS011;1209;48.410;9.054;2023-04-25T01:12:40;2.10;;;2.00;;
2396;SDS011;1209;48.410;9.054;2023-04-25T01:15:06;2.30;;;2.20;;
2396;SDS011;1209;48.410;9.054;2023-04-25T01:17:31;2.20;;;2.00;;
2396;SDS011;1209;48.410;9.054;2023-04-25T01:19:58;5.50;;;2.90;;
2396;SDS011;1209;48.410;9.054;2023-04-25T01:22:24;6.80;;;2.13;;
2396;SDS011;1209;48.410;9.054;2023-04-25T01:24:49;2.60;;;2.50;;
2396;SDS011;1209;48.410;9.054;2023-04-25T01:27:15;2.90;;;2.60;;
2396;SDS011;1209;48.410;9.054;2023-04-25T01:29:40;2.50;;;2.30;;
2396;SDS011;1209;48.410;9.054;2023-04-25T01:32:06;3.27;;;2.97;;
2396;SDS011;1209;48.410;9.054;2023-04-25T01:34:32;2.40;;;2.30;;
2396;SDS011;1209;48.410;9.054;2023-04-25T01:36:59;2.67;;;2.47;;
2396;SDS011;1209;48.410;9.054;2023-04-25T01:39:26;4.30;;;2.23;;
2396;SDS011;1209;48.410;9.054;2023-04-25T01:41:52;2.43;;;2.33;;
2396;SDS011;1209;48.410;9.054;2023-04-25T01:44:17;7.13;;;2.67;;
2396;SDS011;1209;48.410;9.054;2023-04-25T01:46:43;4.00;;;2.10;;
2396;SDS011;1209;48.410;9.054;2023-04-25T01:49:08;2.40;;;2.20;;
2396;SDS011;1209;48.410;9.054;2023-04-25T01:51:33;11.90;;;3.13;;
2396;SDS011;1209;48.410;9.054;2023-04-25T01:53:59;3.27;;;2.27;;
2396;SDS011;1209;48.410;9.054;2023-04-25T01:56:24;2.93;;;2.40;;
2396;SDS011;1209;48.410;9.054;2023-04-25T01:58:49;4.57;;;2.10;;
2396;SDS011;1209;48.410;9.054;2023-04-25T02:01:16;2.00;;;1.80;;
2396;SDS011;1209;48.410;9.054;2023-04-25T02:03:41;2.30;;;2.07;;
2396;SDS011;1209;48.410;9.054;2023-04-25T02:06:06;3.33;;;2.50;;
2396;SDS011;1209;48.410;9.054;2023-04-25T02:08:31;3.23;;;1.93;;
2396;SDS011;1209;48.410;9.054;2023-04-25T02:10:57;2.80;;;2.53;;
2396;SDS011;1209;48.410;9.054;2023-04-25T02:13:23;2.10;;;1.73;;
2396;SDS011;1209;48.410;9.054;2023-04-25T02:15:48;2.53;;;2.33;;
2396;SDS011;1209;48.410;9.054;2023-04-25T02:18:13;2.00;;;1.90;;
2396;SDS011;1209;48.410;9.054;2023-04-25T02:20:41;2.27;;;2.17;;
2396;SDS011;1209;48.410;9.054;2023-04-25T02:23:06;2.03;;;1.83;;
2396;SDS011;1209;48.410;9.054;2023-04-25T02:25:32;2.03;;;1.80;;
2396;SDS011;1209;48.410;9.054;2023-04-25T02:27:57;4.17;;;2.63;;
2396;SDS011;1209;48.410;9.054;2023-04-25T02:30:22;2.50;;;2.30;;
2396;SDS011;1209;48.410;9.054;2023-04-25T02:32:48;2.20;;;1.93;;
2396;SDS011;1209;48.410;9.054;2023-04-25T02:35:13;2.77;;;2.47;;
2396;SDS011;1209;48.410;9.054;2023-04-25T02:37:38;4.37;;;2.77;;
2396;SDS011;1209;48.410;9.054;2023-04-25T02:40:05;3.00;;;2.67;;
2396;SDS011;1209;48.410;9.054;2023-04-25T02:42:30;1.90;;;1.80;;
2396;SDS011;1209;48.410;9.054;2023-04-25T02:44:56;2.87;;;1.83;;
2396;SDS011;1209;48.410;9.054;2023-04-25T02:47:21;2.90;;;2.07;;
2396;SDS011;1209;48.410;9.054;2023-04-25T02:49:46;2.20;;;1.83;;
2396;SDS011;1209;48.410;9.054;2023-04-25T02:52:12;2.17;;;1.90;;
2396;SDS011;1209;48.410;9.054;2023-04-25T02:54:38;5.77;;;3.13;;
2396;SDS011;1209;48.410;9.054;2023-04-25T02:57:04;3.17;;;2.43;;
2396;SDS011;1209;48.410;9.054;2023-04-25T02:59:30;3.97;;;2.57;;
2396;SDS011;1209;48.410;9.054;2023-04-25T03:01:55;2.97;;;2.40;;
2396;SDS011;1209;48.410;9.054;2023-04-25T03:04:20;2.60;;;2.20;;
2396;SDS011;1209;48.410;9.054;2023-04-25T03:06:48;2.43;;;2.20;;
2396;SDS011;1209;48.410;9.054;2023-04-25T03:09:14;3.33;;;2.23;;
2396;SDS011;1209;48.410;9.054;2023-04-25T03:11:39;1.97;;;1.87;;
2396;SDS011;1209;48.410;9.054;2023-04-25T03:14:05;2.90;;;2.70;;
2396;SDS011;1209;48.410;9.054;2023-04-25T03:16:30;6.70;;;2.70;;
2396;SDS011;1209;48.410;9.054;2023-04-25T03:18:56;2.20;;;1.77;;
2396;SDS011;1209;48.410;9.054;2023-04-25T03:21:21;1.97;;;1.83;;
2396;SDS011;1209;48.410;9.054;2023-04-25T03:23:46;2.10;;;2.00;;
2396;SDS011;1209;48.410;9.054;2023-04-25T03:26:12;2.30;;;2.10;;
2396;SDS011;1209;48.410;9.054;2023-04-25T03:28:37;2.47;;;2.03;;
2396;SDS011;1209;48.410;9.054;2023-04-25T03:31:02;2.33;;;2.13;;
2396;SDS011;1209;48.410;9.054;2023-04-25T03:33:28;4.50;;;1.80;;
2396;SDS011;1209;48.410;9.054;2023-04-25T03:35:53;2.03;;;1.90;;
2396;SDS011;1209;48.410;9.054;2023-04-25T03:38:18;2.77;;;2.53;;
2396;SDS011;1209;48.410;9.054;2023-04-25T03:40:44;2.90;;;2.40;;
2396;SDS011;1209;48.410;9.054;2023-04-25T03:43:09;3.03;;;1.90;;
2396;SDS011;1209;48.410;9.054;2023-04-25T03:45:34;1.90;;;1.80;;
2396;SDS011;1209;48.410;9.054;2023-04-25T03:48:00;1.90;;;1.80;;
2396;SDS011;1209;48.410;9.054;2023-04-25T03:50:25;2.00;;;1.90;;
2396;SDS011;1209;48.410;9.054;2023-04-25T03:52:50;2.37;;;2.17;;
2396;SDS011;1209;48.410;9.054;2023-04-25T03:55:16;3.80;;;2.43;;
2396;SDS011;1209;48.410;9.054;2023-04-25T03:57:41;2.13;;;1.60;;
2396;SDS011;1209;48.410;9.054;2023-04-25T04:00:07;1.67;;;1.57;;
2396;SDS011;1209;48.410;9.054;2023-04-25T04:02:33;4.00;;;2.20;;
2396;SDS011;1209;48.410;9.054;2023-04-25T04:04:59;2.50;;;2.30;;
2396;SDS011;1209;48.410;9.054;2023-04-25T04:07:25;2.43;;;1.87;;
2396;SDS011;1209;48.410;9.054;2023-04-25T04:09:50;3.50;;;2.13;;
2396;SDS011;1209;48.410;9.054;2023-04-25T04:12:16;1.90;;;1.80;;
2396;SDS011;1209;48.410;9.054;2023-04-25T04:14:41;2.30;;;2.07;;
2396;SDS011;1209;48.410;9.054;2023-04-25T04:17:06;3.37;;;2.90;;
2396;SDS011;1209;48.410;9.054;2023-04-25T04:19:32;2.57;;;2.37;;
2396;SDS011;1209;48.410;9.054;2023-04-25T04:21:57;3.10;;;2.40;;
2396;SDS011;1209;48.410;9.054;2023-04-25T04:24:22;2.30;;;2.07;;
2396;SDS011;1209;48.410;9.054;2023-04-25T04:26:48;3.70;;;3.10;;
2396;SDS011;1209;48.410;9.054;2023-04-25T04:29:14;4.30;;;2.60;;
2396;SDS011;1209;48.410;9.054;2023-04-25T04:31:46;4.40;;;2.50;;
2396;SDS011;1209;48.410;9.054;2023-04-25T04:34:15;2.67;;;2.47;;
2396;SDS011;1209;48.410;9.054;2023-04-25T04:36:41;3.33;;;2.27;;
2396;SDS011;1209;48.410;9.054;2023-04-25T04:39:07;5.70;;;2.60;;
2396;SDS011;1209;48.410;9.054;2023-04-25T04:41:34;3.27;;;2.97;;
2396;SDS011;1209;48.410;9.054;2023-04-25T04:43:59;2.47;;;2.17;;
2396;SDS011;1209;48.410;9.054;2023-04-25T04:46:26;4.53;;;2.70;;
2396;SDS011;1209;48.410;9.054;2023-04-25T04:48:52;3.80;;;2.90;;
2396;SDS011;1209;48.410;9.054;2023-04-25T04:51:18;2.10;;;1.90;;
2396;SDS011;1209;48.410;9.054;2023-04-25T04:53:43;2.87;;;2.67;;
2396;SDS011;1209;48.410;9.054;2023-04-25T04:56:09;2.73;;;2.43;;
2396;SDS011;1209;48.410;9.054;2023-04-25T04:58:34;7.20;;;2.90;;
2396;SDS011;1209;48.410;9.054;2023-04-25T05:01:01;2.27;;;2.07;;
2396;SDS011;1209;48.410;9.054;2023-04-25T05:03:26;4.93;;;2.40;;
2396;SDS011;1209;48.410;9.054;2023-04-25T05:05:52;2.30;;;2.10;;
2396;SDS011;1209;48.410;9.054;2023-04-25T05:08:17;6.30;;;2.20;;
2396;SDS011;1209;48.410;9.054;2023-04-25T05:10:42;2.80;;;2.60;;
2396;SDS011;1209;48.410;9.054;2023-04-25T05:13:08;2.93;;;2.70;;
2396;SDS011;1209;48.410;9.054;2023-04-25T05:15:33;8.60;;;3.00;;
2396;SDS011;1209;48.410;9.054;2023-04-25T05:17:58;4.53;;;2.50;;
2396;SDS011;1209;48.410;9.054;2023-04-25T05:20:23;10.20;;;3.00;;
2396;SDS011;1209;48.410;9.054;2023-04-25T05:22:49;3.27;;;2.97;;
2396;SDS011;1209;48.410;9.054;2023-04-25T05:25:14;6.20;;;2.90;;
2396;SDS011;1209;48.410;9.054;2023-04-25T05:27:39;4.27;;;2.80;;
2396;SDS011;1209;48.410;9.054;2023-04-25T05:30:05;3.30;;;2.47;;
2396;SDS011;1209;48.410;9.054;2023-04-25T05:32:31;2.50;;;2.30;;
2396;SDS011;1209;48.410;9.054;2023-04-25T05:34:56;6.90;;;2.77;;
2396;SDS011;1209;48.410;9.054;2023-04-25T05:37:21;3.80;;;2.60;;
2396;SDS011;1209;48.410;9.054;2023-04-25T05:39:46;2.30;;;2.10;;
2396;SDS011;1209;48.410;9.054;2023-04-25T05:42:12;2.47;;;2.27;;
2396;SDS011;1209;48.410;9.054;2023-04-25T05:44:37;2.53;;;2.30;;
2396;SDS011;1209;48.410;9.054;2023-04-25T05:47:02;2.40;;;2.20;;
2396;SDS011;1209;48.410;9.054;2023-04-25T05:49:29;4.50;;;3.00;;
2396;SDS011;1209;48.410;9.054;2023-04-25T05:51:54;2.20;;;2.00;;
2396;SDS011;1209;48.410;9.054;2023-04-25T05:54:20;2.17;;;2.07;;
2396;SDS011;1209;48.410;9.054;2023-04-25T05:56:45;2.10;;;1.90;;
2396;SDS011;1209;48.410;9.054;2023-04-25T05:59:10;7.87;;;2.40;;
2396;SDS011;1209;48.410;9.054;2023-04-25T06:01:35;2.50;;;2.30;;
2396;SDS011;1209;48.410;9.054;2023-04-25T06:04:01;2.93;;;2.20;;
2396;SDS011;1209;48.410;9.054;2023-04-25T06:06:26;2.37;;;2.20;;
2396;SDS011;1209;48.410;9.054;2023-04-25T06:08:52;1.83;;;1.73;;
2396;SDS011;1209;48.410;9.054;2023-04-25T06:11:18;2.30;;;2.17;;
2396;SDS011;1209;48.410;9.054;2023-04-25T06:13:43;3.73;;;2.60;;
2396;SDS011;1209;48.410;9.054;2023-04-25T06:16:08;3.33;;;1.90;;
2396;SDS011;1209;48.410;9.054;2023-04-25T06:18:33;5.53;;;1.90;;
2396;SDS011;1209;48.410;9.054;2023-04-25T06:20:59;2.37;;;2.17;;
2396;SDS011;1209;48.410;9.054;2023-04-25T06:23:24;1.53;;;1.43;;
2396;SDS011;1209;48.410;9.054;2023-04-25T06:25:49;2.03;;;1.70;;
2396;SDS011;1209;48.410;9.054;2023-04-25T06:28:15;4.00;;;2.63;;
2396;SDS011;1209;48.410;9.054;2023-04-25T06:30:40;3.40;;;2.10;;
2396;SDS011;1209;48.410;9.054;2023-04-25T06:33:05;1.93;;;1.83;;
2396;SDS011;1209;48.410;9.054;2023-04-25T06:35:31;3.37;;;2.40;;
2396;SDS011;1209;48.410;9.054;2023-04-25T06:37:56;2.13;;;2.03;;
2396;SDS011;1209;48.410;9.054;2023-04-25T06:40:21;1.97;;;1.80;;
2396;SDS011;1209;48.410;9.054;2023-04-25T06:42:47;2.60;;;2.40;;
2396;SDS011;1209;48.410;9.054;2023-04-25T06:45:12;1.80;;;1.70;;
2396;SDS011;1209;48.410;9.054;2023-04-25T06:47:37;2.23;;;2.00;;
2396;SDS011;1209;48.410;9.054;2023-04-25T06:50:03;2.00;;;1.87;;
2396;SDS011;1209;48.410;9.054;2023-04-25T06:52:28;2.73;;;2.20;;
2396;SDS011;1209;48.410;9.054;2023-04-25T06:54:54;2.27;;;2.10;;
2396;SDS011;1209;48.410;9.054;2023-04-25T06:57:19;2.73;;;2.53;;
2396;SDS011;1209;48.410;9.054;2023-04-25T06:59:44;5.90;;;2.30;;
2396;SDS011;1209;48.410;9.054;2023-04-25T07:02:10;3.40;;;2.30;;
2396;SDS011;1209;48.410;9.054;2023-04-25T07:04:35;6.67;;;2.27;;
2396;SDS011;1209;48.410;9.054;2023-04-25T07:07:01;2.97;;;2.30;;
2396;SDS011;1209;48.410;9.054;2023-04-25T07:09:27;2.80;;;2.60;;
2396;SDS011;1209;48.410;9.054;2023-04-25T07:11:53;2.87;;;2.33;;
2396;SDS011;1209;48.410;9.054;2023-04-25T07:14:18;3.37;;;3.07;;
2396;SDS011;1209;48.410;9.054;2023-04-25T07:16:43;2.17;;;2.00;;
2396;SDS011;1209;48.410;9.054;2023-04-25T07:19:09;3.17;;;2.97;;
2396;SDS011;1209;48.410;9.054;2023-04-25T07:21:34;6.30;;;2.87;;
2396;SDS011;1209;48.410;9.054;2023-04-25T07:24:01;3.10;;;2.80;;
2396;SDS011;1209;48.410;9.054;2023-04-25T07:26:26;3.03;;;2.73;;
2396;SDS011;1209;48.410;9.054;2023-04-25T07:28:52;3.23;;;3.03;;
2396;SDS011;1209;48.410;9.054;2023-04-25T07:31:17;4.77;;;3.90;;
2396;SDS011;1209;48.410;9.054;2023-04-25T07:33:45;3.90;;;3.50;;
2396;SDS011;1209;48.410;9.054;2023-04-25T07:36:11;4.50;;;4.10;;
2396;SDS011;1209;48.410;9.054;2023-04-25T07:38:37;4.60;;;4.20;;
2396;SDS011;1209;48.410;9.054;2023-04-25T07:41:03;6.57;;;5.10;;
2396;SDS011;1209;48.410;9.054;2023-04-25T07:43:28;7.07;;;5.90;;
2396;SDS011;1209;48.410;9.054;2023-04-25T07:45:53;4.47;;;3.90;;
2396;SDS011;1209;48.410;9.054;2023-04-25T07:48:19;6.20;;;4.43;;
2396;SDS011;1209;48.410;9.054;2023-04-25T07:50:44;4.53;;;3.17;;
2396;SDS011;1209;48.410;9.054;2023-04-25T07:53:10;4.80;;;3.43;;
2396;SDS011;1209;48.410;9.054;2023-04-25T07:55:35;6.53;;;4.50;;
2396;SDS011;1209;48.410;9.054;2023-04-25T07:58:01;3.33;;;3.03;;
2396;SDS011;1209;48.410;9.054;2023-04-25T08:00:27;4.70;;;3.40;;
2396;SDS011;1209;48.410;9.054;2023-04-25T08:02:53;3.37;;;2.90;;
2396;SDS011;1209;48.410;9.054;2023-04-25T08:05:18;4.50;;;2.90;;
2396;SDS011;1209;48.410;9.054;2023-04-25T08:07:43;6.37;;;4.10;;
2396;SDS011;1209;48.410;9.054;2023-04-25T08:10:09;3.60;;;3.03;;
2396;SDS011;1209;48.410;9.054;2023-04-25T08:12:34;4.57;;;2.90;;
2396;SDS011;1209;48.410;9.054;2023-04-25T08:15:00;3.87;;;3.50;;
2396;SDS011;1209;48.410;9.054;2023-04-25T08:17:25;5.07;;;3.80;;
2396;SDS011;1209;48.410;9.054;2023-04-25T08:19:50;7.33;;;3.80;;
2396;SDS011;1209;48.410;9.054;2023-04-25T08:22:15;5.70;;;4.00;;
2396;SDS011;1209;48.410;9.054;2023-04-25T08:24:41;5.70;;;4.20;;
2396;SDS011;1209;48.410;9.054;2023-04-25T08:27:06;2.90;;;2.60;;
2396;SDS011;1209;48.410;9.054;2023-04-25T08:29:32;2.67;;;2.47;;
2396;SDS011;1209;48.410;9.054;2023-04-25T08:31:58;4.03;;;3.57;;
2396;SDS011;1209;48.410;9.054;2023-04-25T08:34:24;3.90;;;3.30;;
2396;SDS011;1209;48.410;9.054;2023-04-25T08:36:50;2.53;;;2.33;;
2396;SDS011;1209;48.410;9.054;2023-04-25T08:39:15;2.60;;;2.40;;
2396;SDS011;1209;48.410;9.054;2023-04-25T08:41:41;2.30;;;2.10;;
2396;SDS011;1209;48.410;9.054;2023-04-25T08:44:06;3.87;;;2.47;;
2396;SDS011;1209;48.410;9.054;2023-04-25T08:46:35;3.77;;;3.17;;
2396;SDS011;1209;48.410;9.054;2023-04-25T08:49:03;3.20;;;2.87;;
2396;SDS011;1209;48.410;9.054;2023-04-25T08:51:30;7.20;;;2.50;;
2396;SDS011;1209;48.410;9.054;2023-04-25T08:53:57;6.63;;;2.50;;
2396;SDS011;1209;48.410;9.054;2023-04-25T08:56:33;2.37;;;2.10;;
2396;SDS011;1209;48.410;9.054;2023-04-25T08:58:59;2.40;;;1.83;;
2396;SDS011;1209;48.410;9.054;2023-04-25T09:01:26;2.00;;;1.90;;
2396;SDS011;1209;48.410;9.054;2023-04-25T09:03:52;1.90;;;1.80;;
2396;SDS011;1209;48.410;9.054;2023-04-25T09:06:18;2.77;;;2.57;;
2396;SDS011;1209;48.410;9.054;2023-04-25T09:08:44;1.98;;;1.85;;
2396;SDS011;1209;48.410;9.054;2023-04-25T09:11:09;1.70;;;1.60;;
2396;SDS011;1209;48.410;9.054;2023-04-25T09:13:34;1.40;;;1.40;;
2396;SDS011;1209;48.410;9.054;2023-04-25T09:16:00;1.43;;;1.33;;
2396;SDS011;1209;48.410;9.054;2023-04-25T09:18:26;1.47;;;1.47;;
2396;SDS011;1209;48.410;9.054;2023-04-25T09:20:53;1.95;;;1.25;;
2396;SDS011;1209;48.410;9.054;2023-04-25T09:23:29;1.00;;;1.00;;
2396;SDS011;1209;48.410;9.054;2023-04-25T09:25:55;1.60;;;1.27;;
2396;SDS011;1209;48.410;9.054;2023-04-25T09:28:24;1.33;;;1.33;;
2396;SDS011;1209;48.410;9.054;2023-04-25T09:30:57;1.20;;;1.20;;
2396;SDS011;1209;48.410;9.054;2023-04-25T09:33:32;1.20;;;1.20;;
2396;SDS011;1209;48.410;9.054;2023-04-25T09:36:07;4.32;;;2.70;;
2396;SDS011;1209;48.410;9.054;2023-04-25T09:38:40;1.75;;;1.65;;
2396;SDS011;1209;48.410;9.054;2023-04-25T09:41:10;1.57;;;1.40;;
2396;SDS011;1209;48.410;9.054;2023-04-25T09:43:36;1.30;;;1.30;;
2396;SDS011;1209;48.410;9.054;2023-04-25T09:46:07;1.07;;;1.07;;
2396;SDS011;1209;48.410;9.054;2023-04-25T09:48:34;0.93;;;0.93;;
2396;SDS011;1209;48.410;9.054;2023-04-25T09:51:03;0.83;;;0.83;;
2396;SDS011;1209;48.410;9.054;2023-04-25T09:53:33;1.30;;;1.30;;
2396;SDS011;1209;48.410;9.054;2023-04-25T09:56:06;1.10;;;1.10;;
2396;SDS011;1209;48.410;9.054;2023-04-25T09:58:33;0.95;;;0.95;;
2396;SDS011;1209;48.410;9.054;2023-04-25T10:01:04;0.85;;;0.85;;
2396;SDS011;1209;48.410;9.054;2023-04-25T10:03:31;1.08;;;1.02;;
2396;SDS011;1209;48.410;9.054;2023-04-25T10:06:01;2.38;;;1.38;;
2396;SDS011;1209;48.410;9.054;2023-04-25T10:08:37;1.13;;;1.10;;
2396;SDS011;1209;48.410;9.054;2023-04-25T10:11:03;1.05;;;1.05;;
2396;SDS011;1209;48.410;9.054;2023-04-25T10:13:31;1.00;;;1.00;;
2396;SDS011;1209;48.410;9.054;2023-04-25T10:16:00;6.93;;;0.90;;
2396;SDS011;1209;48.410;9.054;2023-04-25T10:18:29;1.02;;;1.02;;
2396;SDS011;1209;48.410;9.054;2023-04-25T10:20:59;1.00;;;1.00;;
2396;SDS011;1209;48.410;9.054;2023-04-25T10:23:25;0.90;;;0.90;;
2396;SDS011;1209;48.410;9.054;2023-04-25T10:25:52;0.85;;;0.85;;
2396;SDS011;1209;48.410;9.054;2023-04-25T10:28:19;1.27;;;0.80;;
2396;SDS011;1209;48.410;9.054;2023-04-25T10:31:00;1.02;;;1.02;;
2396;SDS011;1209;48.410;9.054;2023-04-25T10:33:33;0.95;;;0.95;;
2396;SDS011;1209;48.410;9.054;2023-04-25T10:36:36;0.70;;;0.70;;
2396;SDS011;1209;48.410;9.054;2023-04-25T10:38:56;1.20;;;1.20;;
2396;SDS011;1209;48.410;9.054;2023-04-25T10:41:31;1.05;;;1.05;;
2396;SDS011;1209;48.410;9.054;2023-04-25T10:44:10;1.27;;;1.27;;
2396;SDS011;1209;48.410;9.054;2023-04-25T10:46:35;0.90;;;0.90;;
2396;SDS011;1209;48.410;9.054;2023-04-25T10:49:01;1.17;;;1.17;;
2396;SDS011;1209;48.410;9.054;2023-04-25T10:51:28;1.35;;;1.27;;
2396;SDS011;1209;48.410;9.054;2023-04-25T10:53:58;0.90;;;0.90;;
2396;SDS011;1209;48.410;9.054;2023-04-25T10:56:29;0.90;;;0.90;;
2396;SDS011;1209;48.410;9.054;2023-04-25T10:59:15;1.10;;;1.00;;
2396;SDS011;1209;48.410;9.054;2023-04-25T11:01:46;5.20;;;0.95;;
2396;SDS011;1209;48.410;9.054;2023-04-25T11:07:00;0.90;;;0.90;;
2396;SDS011;1209;48.410;9.054;2023-04-25T11:09:45;0.90;;;0.90;;
2396;SDS011;1209;48.410;9.054;2023-04-25T11:12:11;1.70;;;1.23;;
2396;SDS011;1209;48.410;9.054;2023-04-25T11:14:37;1.20;;;1.20;;
2396;SDS011;1209;48.410;9.054;2023-04-25T11:17:03;1.23;;;1.13;;
2396;SDS011;1209;48.410;9.054;2023-04-25T11:19:28;1.40;;;1.30;;
2396;SDS011;1209;48.410;9.054;2023-04-25T11:21:54;0.90;;;0.90;;
2396;SDS011;1209;48.410;9.054;2023-04-25T11:24:25;1.08;;;1.00;;
2396;SDS011;1209;48.410;9.054;2023-04-25T11:26:51;1.10;;;1.10;;
2396;SDS011;1209;48.410;9.054;2023-04-25T11:29:17;0.90;;;0.90;;
2396;SDS011;1209;48.410;9.054;2023-04-25T11:31:45;2.33;;;1.40;;
2396;SDS011;1209;48.410;9.054;2023-04-25T11:34:10;1.40;;;1.30;;
2396;SDS011;1209;48.410;9.054;2023-04-25T11:36:36;1.03;;;1.03;;
2396;SDS011;1209;48.410;9.054;2023-04-25T11:39:03;1.45;;;1.35;;
2396;SDS011;1209;48.410;9.054;2023-04-25T11:41:28;1.20;;;1.20;;
2396;SDS011;1209;48.410;9.054;2023-04-25T11:43:55;1.75;;;1.65;;
2396;SDS011;1209;48.410;9.054;2023-04-25T11:46:20;3.30;;;1.83;;
2396;SDS011;1209;48.410;9.054;2023-04-25T11:48:46;1.13;;;1.13;;
2396;SDS011;1209;48.410;9.054;2023-04-25T11:51:12;1.20;;;1.20;;
2396;SDS011;1209;48.410;9.054;2023-04-25T11:53:40;1.70;;;1.37;;
2396;SDS011;1209;48.410;9.054;2023-04-25T11:56:10;1.50;;;1.40;;
2396;SDS011;1209;48.410;9.054;2023-04-25T11:58:55;1.10;;;1.10;;
2396;SDS011;1209;48.410;9.054;2023-04-25T12:01:55;1.13;;;1.10;;
2396;SDS011;1209;48.410;9.054;2023-04-25T12:04:18;0.90;;;0.90;;
2396;SDS011;1209;48.410;9.054;2023-04-25T12:06:45;0.90;;;0.90;;
2396;SDS011;1209;48.410;9.054;2023-04-25T12:09:12;0.90;;;0.90;;
2396;SDS011;1209;48.410;9.054;2023-04-25T12:11:42;0.83;;;0.83;;
2396;SDS011;1209;48.410;9.054;2023-04-25T12:14:10;1.00;;;1.00;;
2396;SDS011;1209;48.410;9.054;2023-04-25T12:16:46;1.33;;;1.30;;
2396;SDS011;1209;48.410;9.054;2023-04-25T12:19:13;1.10;;;1.10;;
2396;SDS011;1209;48.410;9.054;2023-04-25T12:21:40;1.00;;;1.00;;
2396;SDS011;1209;48.410;9.054;2023-04-25T12:24:24;1.23;;;1.23;;
2396;SDS011;1209;48.410;9.054;2023-04-25T12:27:05;1.50;;;1.40;;
2396;SDS011;1209;48.410;9.054;2023-04-25T12:29:33;1.33;;;1.23;;
2396;SDS011;1209;48.410;9.054;2023-04-25T12:31:59;0.90;;;0.90;;
2396;SDS011;1209;48.410;9.054;2023-04-25T12:34:27;1.30;;;1.23;;
2396;SDS011;1209;48.410;9.054;2023-04-25T12:36:53;1.10;;;1.00;;
2396;SDS011;1209;48.410;9.054;2023-04-25T12:39:20;1.33;;;1.23;;
2396;SDS011;1209;48.410;9.054;2023-04-25T12:41:47;1.07;;;1.07;;
2396;SDS011;1209;48.410;9.054;2023-04-25T12:44:13;2.93;;;1.33;;
2396;SDS011;1209;48.410;9.054;2023-04-25T12:46:39;1.53;;;1.30;;
2396;SDS011;1209;48.410;9.054;2023-04-25T12:49:05;1.20;;;1.20;;
2396;SDS011;1209;48.410;9.054;2023-04-25T12:51:32;1.73;;;1.20;;
2396;SDS011;1209;48.410;9.054;2023-04-25T12:53:58;1.10;;;1.10;;
2396;SDS011;1209;48.410;9.054;2023-04-25T12:56:25;0.97;;;0.97;;
2396;SDS011;1209;48.410;9.054;2023-04-25T12:58:51;0.90;;;0.90;;
2396;SDS011;1209;48.410;9.054;2023-04-25T13:01:17;1.40;;;1.30;;
2396;SDS011;1209;48.410;9.054;2023-04-25T13:03:42;2.20;;;1.47;;
2396;SDS011;1209;48.410;9.054;2023-04-25T13:06:08;1.27;;;1.27;;
2396;SDS011;1209;48.410;9.054;2023-04-25T13:08:33;1.63;;;1.40;;
2396;SDS011;1209;48.410;9.054;2023-04-25T13:10:59;1.53;;;1.43;;
2396;SDS011;1209;48.410;9.054;2023-04-25T13:13:25;1.10;;;1.10;;
2396;SDS011;1209;48.410;9.054;2023-04-25T13:15:52;3.63;;;3.40;;
2396;SDS011;1209;48.410;9.054;2023-04-25T13:18:18;2.67;;;1.80;;
2396;SDS011;1209;48.410;9.054;2023-04-25T13:20:44;7.13;;;3.73;;
2396;SDS011;1209;48.410;9.054;2023-04-25T13:23:11;2.10;;;2.00;;
2396;SDS011;1209;48.410;9.054;2023-04-25T13:25:36;1.33;;;1.30;;
2396;SDS011;1209;48.410;9.054;2023-04-25T13:28:01;1.10;;;1.10;;
2396;SDS011;1209;48.410;9.054;2023-04-25T13:30:27;3.77;;;2.43;;
2396;SDS011;1209;48.410;9.054;2023-04-25T13:32:53;5.77;;;2.77;;
2396;SDS011;1209;48.410;9.054;2023-04-25T13:35:21;1.10;;;1.10;;
2396;SDS011;1209;48.410;9.054;2023-04-25T13:37:46;1.60;;;1.50;;
2396;SDS011;1209;48.410;9.054;2023-04-25T13:40:11;1.70;;;1.60;;
2396;SDS011;1209;48.410;9.054;2023-04-25T13:42:37;1.90;;;1.80;;
2396;SDS011;1209;48.410;9.054;2023-04-25T13:45:03;1.30;;;1.20;;
2396;SDS011;1209;48.410;9.054;2023-04-25T13:47:29;1.97;;;1.80;;
2396;SDS011;1209;48.410;9.054;2023-04-25T13:49:55;2.90;;;2.47;;
2396;SDS011;1209;48.410;9.054;2023-04-25T13:52:20;1.70;;;1.60;;
2396;SDS011;1209;48.410;9.054;2023-04-25T13:54:46;4.97;;;4.10;;
2396;SDS011;1209;48.410;9.054;2023-04-25T13:57:11;3.80;;;2.00;;
2396;SDS011;1209;48.410;9.054;2023-04-25T13:59:37;2.40;;;2.13;;
2396;SDS011;1209;48.410;9.054;2023-04-25T14:02:03;3.10;;;2.20;;
2396;SDS011;1209;48.410;9.054;2023-04-25T14:04:28;4.50;;;3.33;;
2396;SDS011;1209;48.410;9.054;2023-04-25T14:06:54;2.17;;;2.07;;
2396;SDS011;1209;48.410;9.054;2023-04-25T14:09:20;1.60;;;1.50;;
2396;SDS011;1209;48.410;9.054;2023-04-25T14:11:50;1.90;;;1.80;;
2396;SDS011;1209;48.410;9.054;2023-04-25T14:14:16;1.17;;;1.17;;
2396;SDS011;1209;48.410;9.054;2023-04-25T14:16:41;1.93;;;1.80;;
2396;SDS011;1209;48.410;9.054;2023-04-25T14:19:06;1.87;;;1.77;;
2396;SDS011;1209;48.410;9.054;2023-04-25T14:21:32;1.37;;;1.27;;
2396;SDS011;1209;48.410;9.054;2023-04-25T14:23:57;1.60;;;1.50;;
2396;SDS011;1209;48.410;9.054;2023-04-25T14:26:22;1.73;;;1.57;;
2396;SDS011;1209;48.410;9.054;2023-04-25T14:28:48;1.97;;;1.83;;
2396;SDS011;1209;48.410;9.054;2023-04-25T14:31:13;1.70;;;1.60;;
2396;SDS011;1209;48.410;9.054;2023-04-25T14:33:39;1.80;;;1.70;;
2396;SDS011;1209;48.410;9.054;2023-04-25T14:36:07;1.27;;;1.20;;
2396;SDS011;1209;48.410;9.054;2023-04-25T14:38:32;1.93;;;1.77;;
2396;SDS011;1209;48.410;9.054;2023-04-25T14:40:58;2.13;;;1.77;;
2396;SDS011;1209;48.410;9.054;2023-04-25T14:43:23;2.10;;;1.90;;
2396;SDS011;1209;48.410;9.054;2023-04-25T14:45:48;2.00;;;1.80;;
2396;SDS011;1209;48.410;9.054;2023-04-25T14:48:14;2.40;;;2.20;;
2396;SDS011;1209;48.410;9.054;2023-04-25T14:50:40;1.80;;;1.70;;
2396;SDS011;1209;48.410;9.054;2023-04-25T14:53:05;2.00;;;1.90;;
2396;SDS011;1209;48.410;9.054;2023-04-25T14:55:30;2.33;;;2.13;;
2396;SDS011;1209;48.410;9.054;2023-04-25T14:57:56;2.03;;;1.90;;
2396;SDS011;1209;48.410;9.054;2023-04-25T15:00:21;2.40;;;1.80;;
2396;SDS011;1209;48.410;9.054;2023-04-25T15:02:50;2.87;;;2.40;;
2396;SDS011;1209;48.410;9.054;2023-04-25T15:05:16;2.40;;;2.20;;
2396;SDS011;1209;48.410;9.054;2023-04-25T15:07:41;2.00;;;1.90;;
2396;SDS011;1209;48.410;9.054;2023-04-25T15:10:07;2.33;;;2.13;;
2396;SDS011;1209;48.410;9.054;2023-04-25T15:12:38;3.00;;;2.70;;
2396;SDS011;1209;48.410;9.054;2023-04-25T15:15:05;18.17;;;6.60;;